<?xml version="1.0" encoding="UTF-8" standalone="no" ?>
<gpx xmlns="http://www.topografix.com/GPX/1/1" xmlns:xsi="http://www.w3.org/2001/XMLSchema-instance" xsi:schemaLocation="http://www.topografix.com/GPX/1/1 http://www.topografix.com/GPX/1/1/gpx.xsd" version="1.1" creator="VisuGPX - https://www.visugpx.com">
  <metadata>
    <name>Norvège</name>
  </metadata>
  <trk>
    <name><![CDATA[Tour d'Europe: étape 048]]></name>
    <trkseg>
      <trkpt lat="66.29224" lon="13.57601">
        <ele>61.132618</ele>
        <time>2020-08-15T07:32:59.635Z</time>
      </trkpt>
      <trkpt lat="66.29408" lon="13.57322">
        <ele>69.733587</ele>
        <time>2020-08-15T07:34:33.630Z</time>
      </trkpt>
      <trkpt lat="66.29642" lon="13.57283">
        <ele>70.117991</ele>
        <time>2020-08-15T07:38:35.645Z</time>
      </trkpt>
      <trkpt lat="66.29835" lon="13.56936">
        <ele>67.620553</ele>
        <time>2020-08-15T07:39:27.659Z</time>
      </trkpt>
      <trkpt lat="66.30018" lon="13.5658">
        <ele>72.110153</ele>
        <time>2020-08-15T07:40:30.639Z</time>
      </trkpt>
      <trkpt lat="66.30192" lon="13.56236">
        <ele>77.530161</ele>
        <time>2020-08-15T07:41:48.656Z</time>
      </trkpt>
      <trkpt lat="66.30321" lon="13.56185">
        <ele>78.705679</ele>
        <time>2020-08-15T07:42:53.634Z</time>
      </trkpt>
      <trkpt lat="66.30372" lon="13.56347">
        <ele>64.012916</ele>
        <time>2020-08-15T07:43:33.663Z</time>
      </trkpt>
      <trkpt lat="66.30496" lon="13.56714">
        <ele>51.028692</ele>
        <time>2020-08-15T07:43:55.626Z</time>
      </trkpt>
      <trkpt lat="66.30756" lon="13.56507">
        <ele>37.604097</ele>
        <time>2020-08-15T07:44:37.624Z</time>
      </trkpt>
      <trkpt lat="66.30896" lon="13.56125">
        <ele>41.682417</ele>
        <time>2020-08-15T07:45:22.665Z</time>
      </trkpt>
      <trkpt lat="66.30966" lon="13.55601">
        <ele>44.512495</ele>
        <time>2020-08-15T07:46:25.648Z</time>
      </trkpt>
      <trkpt lat="66.31078" lon="13.55131">
        <ele>46.488168</ele>
        <time>2020-08-15T07:47:19.637Z</time>
      </trkpt>
      <trkpt lat="66.31172" lon="13.54634">
        <ele>44.70025</ele>
        <time>2020-08-15T07:48:22.622Z</time>
      </trkpt>
      <trkpt lat="66.31334" lon="13.5425">
        <ele>40.21609</ele>
        <time>2020-08-15T07:49:13.643Z</time>
      </trkpt>
      <trkpt lat="66.3145" lon="13.53706">
        <ele>44.108122</ele>
        <time>2020-08-15T07:50:16.635Z</time>
      </trkpt>
      <trkpt lat="66.3152" lon="13.5316">
        <ele>48.939914</ele>
        <time>2020-08-15T07:51:19.675Z</time>
      </trkpt>
      <trkpt lat="66.31619" lon="13.52699">
        <ele>54.593035</ele>
        <time>2020-08-15T07:52:50.648Z</time>
      </trkpt>
      <trkpt lat="66.31794" lon="13.52432">
        <ele>66.561016</ele>
        <time>2020-08-15T07:54:47.644Z</time>
      </trkpt>
      <trkpt lat="66.31972" lon="13.52156">
        <ele>76.56212</ele>
        <time>2020-08-15T07:56:14.644Z</time>
      </trkpt>
      <trkpt lat="66.31969" lon="13.51567">
        <ele>66.245577</ele>
        <time>2020-08-15T07:56:56.654Z</time>
      </trkpt>
      <trkpt lat="66.32044" lon="13.51078">
        <ele>57.27607</ele>
        <time>2020-08-15T07:57:26.642Z</time>
      </trkpt>
      <trkpt lat="66.32103" lon="13.50497">
        <ele>50.797673</ele>
        <time>2020-08-15T07:58:08.701Z</time>
      </trkpt>
      <trkpt lat="66.32134" lon="13.49979">
        <ele>56.292739</ele>
        <time>2020-08-15T07:59:21.642Z</time>
      </trkpt>
      <trkpt lat="66.34737" lon="13.49049">
        <ele>79.797359</ele>
        <time>2020-08-15T08:16:42.641Z</time>
      </trkpt>
      <trkpt lat="66.34686" lon="13.48429">
        <ele>66.175334</ele>
        <time>2020-08-15T08:17:24.655Z</time>
      </trkpt>
      <trkpt lat="66.34499" lon="13.47751">
        <ele>52.8377</ele>
        <time>2020-08-15T08:18:06.662Z</time>
      </trkpt>
      <trkpt lat="66.34368" lon="13.47189">
        <ele>46.869978</ele>
        <time>2020-08-15T08:18:48.659Z</time>
      </trkpt>
      <trkpt lat="66.34294" lon="13.46689">
        <ele>43.975931</ele>
        <time>2020-08-15T08:19:30.656Z</time>
      </trkpt>
      <trkpt lat="66.34467" lon="13.46">
        <ele>48.415925</ele>
        <time>2020-08-15T08:20:50.666Z</time>
      </trkpt>
      <trkpt lat="66.34558" lon="13.45522">
        <ele>43.005074</ele>
        <time>2020-08-15T08:21:45.649Z</time>
      </trkpt>
      <trkpt lat="66.345" lon="13.45026">
        <ele>42.873517</ele>
        <time>2020-08-15T08:22:50.646Z</time>
      </trkpt>
      <trkpt lat="66.34585" lon="13.44502">
        <ele>45.285839</ele>
        <time>2020-08-15T08:23:48.656Z</time>
      </trkpt>
      <trkpt lat="66.3471" lon="13.44018">
        <ele>42.67166</ele>
        <time>2020-08-15T08:24:42.687Z</time>
      </trkpt>
      <trkpt lat="66.34906" lon="13.43755">
        <ele>44.872024</ele>
        <time>2020-08-15T08:25:40.665Z</time>
      </trkpt>
      <trkpt lat="66.34994" lon="13.4331">
        <ele>50.8681</ele>
        <time>2020-08-15T08:27:03.681Z</time>
      </trkpt>
      <trkpt lat="66.34886" lon="13.42751">
        <ele>46.83234</ele>
        <time>2020-08-15T08:27:56.666Z</time>
      </trkpt>
      <trkpt lat="66.34661" lon="13.42505">
        <ele>45.200153</ele>
        <time>2020-08-15T08:28:59.665Z</time>
      </trkpt>
      <trkpt lat="66.34461" lon="13.42256">
        <ele>42.381797</ele>
        <time>2020-08-15T08:30:04.666Z</time>
      </trkpt>
      <trkpt lat="66.34281" lon="13.419">
        <ele>43.604888</ele>
        <time>2020-08-15T08:31:04.658Z</time>
      </trkpt>
      <trkpt lat="66.34119" lon="13.41554">
        <ele>43.879235</ele>
        <time>2020-08-15T08:32:07.663Z</time>
      </trkpt>
      <trkpt lat="66.33968" lon="13.41156">
        <ele>42.116307</ele>
        <time>2020-08-15T08:32:47.650Z</time>
      </trkpt>
      <trkpt lat="66.33793" lon="13.40805">
        <ele>48.5161</ele>
        <time>2020-08-15T08:34:00.642Z</time>
      </trkpt>
      <trkpt lat="66.33667" lon="13.40369">
        <ele>44.68303</ele>
        <time>2020-08-15T08:35:09.662Z</time>
      </trkpt>
      <trkpt lat="66.33618" lon="13.3983">
        <ele>44.704733</ele>
        <time>2020-08-15T08:36:19.691Z</time>
      </trkpt>
      <trkpt lat="66.33569" lon="13.39306">
        <ele>44.230986</ele>
        <time>2020-08-15T08:37:38.659Z</time>
      </trkpt>
      <trkpt lat="66.33616" lon="13.3872">
        <ele>42.36911</ele>
        <time>2020-08-15T08:38:32.685Z</time>
      </trkpt>
      <trkpt lat="66.3366" lon="13.38144">
        <ele>39.242139</ele>
        <time>2020-08-15T08:39:21.643Z</time>
      </trkpt>
      <trkpt lat="66.33646" lon="13.37596">
        <ele>35.187256</ele>
        <time>2020-08-15T08:40:14.681Z</time>
      </trkpt>
      <trkpt lat="66.33646" lon="13.37037">
        <ele>41.253533</ele>
        <time>2020-08-15T08:41:10.646Z</time>
      </trkpt>
      <trkpt lat="66.33523" lon="13.36614">
        <ele>50.338748</ele>
        <time>2020-08-15T08:42:24.646Z</time>
      </trkpt>
      <trkpt lat="66.33322" lon="13.36416">
        <ele>50.078167</ele>
        <time>2020-08-15T08:43:39.681Z</time>
      </trkpt>
      <trkpt lat="66.33101" lon="13.36171">
        <ele>51.754677</ele>
        <time>2020-08-15T08:44:41.705Z</time>
      </trkpt>
      <trkpt lat="66.32933" lon="13.35808">
        <ele>55.197718</ele>
        <time>2020-08-15T08:45:59.652Z</time>
      </trkpt>
      <trkpt lat="66.32805" lon="13.3535">
        <ele>57.944642</ele>
        <time>2020-08-15T08:47:09.670Z</time>
      </trkpt>
      <trkpt lat="66.32715" lon="13.34834">
        <ele>60.280267</ele>
        <time>2020-08-15T08:48:24.673Z</time>
      </trkpt>
      <trkpt lat="66.32631" lon="13.34342">
        <ele>62.163356</ele>
        <time>2020-08-15T08:49:44.663Z</time>
      </trkpt>
      <trkpt lat="66.3255" lon="13.33874">
        <ele>64.402255</ele>
        <time>2020-08-15T08:50:48.646Z</time>
      </trkpt>
      <trkpt lat="66.32469" lon="13.33402">
        <ele>65.508574</ele>
        <time>2020-08-15T08:51:56.676Z</time>
      </trkpt>
      <trkpt lat="66.32345" lon="13.3292">
        <ele>65.292881</ele>
        <time>2020-08-15T08:52:59.667Z</time>
      </trkpt>
      <trkpt lat="66.32185" lon="13.32582">
        <ele>65.550686</ele>
        <time>2020-08-15T08:53:43.701Z</time>
      </trkpt>
      <trkpt lat="66.32074" lon="13.32135">
        <ele>61.348977</ele>
        <time>2020-08-15T08:54:29.674Z</time>
      </trkpt>
      <trkpt lat="66.31988" lon="13.3161">
        <ele>59.850043</ele>
        <time>2020-08-15T08:55:29.664Z</time>
      </trkpt>
      <trkpt lat="66.31905" lon="13.31079">
        <ele>59.976737</ele>
        <time>2020-08-15T08:56:27.653Z</time>
      </trkpt>
      <trkpt lat="66.31813" lon="13.30442">
        <ele>52.39322</ele>
        <time>2020-08-15T08:57:13.702Z</time>
      </trkpt>
      <trkpt lat="66.31705" lon="13.29933">
        <ele>52.258024</ele>
        <time>2020-08-15T08:58:09.665Z</time>
      </trkpt>
      <trkpt lat="66.3158" lon="13.29413">
        <ele>49.506725</ele>
        <time>2020-08-15T08:58:59.674Z</time>
      </trkpt>
      <trkpt lat="66.31486" lon="13.28859">
        <ele>50.638561</ele>
        <time>2020-08-15T09:00:02.664Z</time>
      </trkpt>
      <trkpt lat="66.31379" lon="13.2837">
        <ele>50.672967</ele>
        <time>2020-08-15T09:06:50.668Z</time>
      </trkpt>
      <trkpt lat="66.31311" lon="13.27872">
        <ele>50.878067</ele>
        <time>2020-08-15T09:08:19.666Z</time>
      </trkpt>
      <trkpt lat="66.31242" lon="13.27382">
        <ele>55.466211</ele>
        <time>2020-08-15T09:09:22.660Z</time>
      </trkpt>
      <trkpt lat="66.3117" lon="13.26846">
        <ele>52.440239</ele>
        <time>2020-08-15T09:10:20.669Z</time>
      </trkpt>
      <trkpt lat="66.31097" lon="13.2629">
        <ele>46.885098</ele>
        <time>2020-08-15T09:11:06.691Z</time>
      </trkpt>
      <trkpt lat="66.31024" lon="13.25773">
        <ele>48.787405</ele>
        <time>2020-08-15T09:12:09.700Z</time>
      </trkpt>
      <trkpt lat="66.30945" lon="13.25231">
        <ele>44.701582</ele>
        <time>2020-08-15T09:13:03.688Z</time>
      </trkpt>
      <trkpt lat="66.30869" lon="13.24696">
        <ele>43.547386</ele>
        <time>2020-08-15T09:14:07.709Z</time>
      </trkpt>
      <trkpt lat="66.30789" lon="13.24167">
        <ele>44.616304</ele>
        <time>2020-08-15T09:15:18.693Z</time>
      </trkpt>
      <trkpt lat="66.3072" lon="13.23649">
        <ele>41.840938</ele>
        <time>2020-08-15T09:16:07.662Z</time>
      </trkpt>
      <trkpt lat="66.30674" lon="13.23135">
        <ele>45.429222</ele>
        <time>2020-08-15T09:17:29.662Z</time>
      </trkpt>
      <trkpt lat="66.30626" lon="13.22631">
        <ele>46.514007</ele>
        <time>2020-08-15T09:18:35.683Z</time>
      </trkpt>
      <trkpt lat="66.30602" lon="13.22104">
        <ele>44.998424</ele>
        <time>2020-08-15T09:19:31.744Z</time>
      </trkpt>
      <trkpt lat="66.30584" lon="13.21554">
        <ele>46.159824</ele>
        <time>2020-08-15T09:20:45.677Z</time>
      </trkpt>
      <trkpt lat="66.30568" lon="13.21039">
        <ele>46.988924</ele>
        <time>2020-08-15T09:22:00.679Z</time>
      </trkpt>
      <trkpt lat="66.32509" lon="13.16161">
        <ele>45.722227</ele>
        <time>2020-08-15T09:35:34.667Z</time>
      </trkpt>
      <trkpt lat="66.32711" lon="13.164">
        <ele>50.502207</ele>
        <time>2020-08-15T09:37:41.673Z</time>
      </trkpt>
      <trkpt lat="66.32919" lon="13.16288">
        <ele>47.287079</ele>
        <time>2020-08-15T09:38:23.680Z</time>
      </trkpt>
      <trkpt lat="66.33088" lon="13.15964">
        <ele>45.076262</ele>
        <time>2020-08-15T09:39:05.681Z</time>
      </trkpt>
      <trkpt lat="66.33253" lon="13.15548">
        <ele>44.086683</ele>
        <time>2020-08-15T09:39:54.689Z</time>
      </trkpt>
      <trkpt lat="66.3335" lon="13.15082">
        <ele>43.012212</ele>
        <time>2020-08-15T09:40:58.656Z</time>
      </trkpt>
      <trkpt lat="66.33357" lon="13.14562">
        <ele>45.922954</ele>
        <time>2020-08-15T09:42:17.690Z</time>
      </trkpt>
      <trkpt lat="66.33213" lon="13.14149">
        <ele>48.225637</ele>
        <time>2020-08-15T09:43:19.671Z</time>
      </trkpt>
      <trkpt lat="66.33036" lon="13.13817">
        <ele>52.634873</ele>
        <time>2020-08-15T09:44:34.689Z</time>
      </trkpt>
      <trkpt lat="66.32885" lon="13.13473">
        <ele>56.286019</ele>
        <time>2020-08-15T09:45:48.686Z</time>
      </trkpt>
      <trkpt lat="66.32729" lon="13.13115">
        <ele>60.745379</ele>
        <time>2020-08-15T09:46:57.666Z</time>
      </trkpt>
      <trkpt lat="66.32585" lon="13.12729">
        <ele>62.62955</ele>
        <time>2020-08-15T09:48:29.666Z</time>
      </trkpt>
      <trkpt lat="66.32532" lon="13.12193">
        <ele>56.803559</ele>
        <time>2020-08-15T09:49:23.671Z</time>
      </trkpt>
      <trkpt lat="66.3245" lon="13.11681">
        <ele>65.141591</ele>
        <time>2020-08-15T09:50:46.682Z</time>
      </trkpt>
      <trkpt lat="66.32431" lon="13.11121">
        <ele>66.794956</ele>
        <time>2020-08-15T09:51:53.686Z</time>
      </trkpt>
      <trkpt lat="66.32325" lon="13.10587">
        <ele>69.263113</ele>
        <time>2020-08-15T09:52:56.681Z</time>
      </trkpt>
      <trkpt lat="66.322" lon="13.10165">
        <ele>76.876306</ele>
        <time>2020-08-15T09:54:19.567Z</time>
      </trkpt>
      <trkpt lat="66.32101" lon="13.09704">
        <ele>74.774185</ele>
        <time>2020-08-15T09:55:31.594Z</time>
      </trkpt>
      <trkpt lat="66.31998" lon="13.09199">
        <ele>69.95523</ele>
        <time>2020-08-15T09:56:18.605Z</time>
      </trkpt>
      <trkpt lat="66.31896" lon="13.08703">
        <ele>67.433167</ele>
        <time>2020-08-15T09:57:07.578Z</time>
      </trkpt>
      <trkpt lat="66.31807" lon="13.08185">
        <ele>64.56415</ele>
        <time>2020-08-15T09:58:03.587Z</time>
      </trkpt>
      <trkpt lat="66.3184" lon="13.07572">
        <ele>57.096555</ele>
        <time>2020-08-15T09:58:45.585Z</time>
      </trkpt>
      <trkpt lat="66.31871" lon="13.0705">
        <ele>60.305531</ele>
        <time>2020-08-15T09:59:39.590Z</time>
      </trkpt>
      <trkpt lat="66.31975" lon="13.06606">
        <ele>63.146821</ele>
        <time>2020-08-15T10:01:10.601Z</time>
      </trkpt>
      <trkpt lat="66.32183" lon="13.06246">
        <ele>55.592599</ele>
        <time>2020-08-15T10:01:54.575Z</time>
      </trkpt>
      <trkpt lat="66.32359" lon="13.05897">
        <ele>53.322813</ele>
        <time>2020-08-15T10:02:36.597Z</time>
      </trkpt>
      <trkpt lat="66.32427" lon="13.0537">
        <ele>52.069899</ele>
        <time>2020-08-15T10:03:25.573Z</time>
      </trkpt>
      <trkpt lat="66.32526" lon="13.04806">
        <ele>53.965139</ele>
        <time>2020-08-15T10:04:27.617Z</time>
      </trkpt>
      <trkpt lat="66.32679" lon="13.04428">
        <ele>61.537279</ele>
        <time>2020-08-15T10:05:50.616Z</time>
      </trkpt>
      <trkpt lat="66.32828" lon="13.04047">
        <ele>64.661367</ele>
        <time>2020-08-15T10:06:57.581Z</time>
      </trkpt>
      <trkpt lat="66.32958" lon="13.03657">
        <ele>66.547653</ele>
        <time>2020-08-15T10:08:08.600Z</time>
      </trkpt>
      <trkpt lat="66.33111" lon="13.03259">
        <ele>63.91561</ele>
        <time>2020-08-15T10:09:02.616Z</time>
      </trkpt>
      <trkpt lat="66.33317" lon="13.02926">
        <ele>60.677375</ele>
        <time>2020-08-15T10:09:47.586Z</time>
      </trkpt>
      <trkpt lat="66.33452" lon="13.02491">
        <ele>60.634041</ele>
        <time>2020-08-15T10:10:51.603Z</time>
      </trkpt>
      <trkpt lat="66.33596" lon="13.02043">
        <ele>58.245676</ele>
        <time>2020-08-15T10:11:33.592Z</time>
      </trkpt>
      <trkpt lat="66.33777" lon="13.01575">
        <ele>52.395169</ele>
        <time>2020-08-15T10:12:15.586Z</time>
      </trkpt>
      <trkpt lat="66.33922" lon="13.01144">
        <ele>56.584317</ele>
        <time>2020-08-15T10:13:09.569Z</time>
      </trkpt>
      <trkpt lat="66.34033" lon="13.0073">
        <ele>62.224692</ele>
        <time>2020-08-15T10:14:54.676Z</time>
      </trkpt>
      <trkpt lat="66.34257" lon="13.00571">
        <ele>60.049543</ele>
        <time>2020-08-15T10:15:42.589Z</time>
      </trkpt>
      <trkpt lat="66.3447" lon="13.00289">
        <ele>60.058127</ele>
        <time>2020-08-15T10:16:24.575Z</time>
      </trkpt>
      <trkpt lat="66.34655" lon="13.00157">
        <ele>64.449378</ele>
        <time>2020-08-15T10:17:46.612Z</time>
      </trkpt>
      <trkpt lat="66.3488" lon="13.00196">
        <ele>65.987071</ele>
        <time>2020-08-15T10:19:52.568Z</time>
      </trkpt>
      <trkpt lat="66.35101" lon="13.00248">
        <ele>68.007155</ele>
        <time>2020-08-15T10:20:44.599Z</time>
      </trkpt>
      <trkpt lat="66.35319" lon="13.00289">
        <ele>75.019106</ele>
        <time>2020-08-15T10:22:15.576Z</time>
      </trkpt>
      <trkpt lat="66.35517" lon="13.00177">
        <ele>89.698787</ele>
        <time>2020-08-15T10:24:12.607Z</time>
      </trkpt>
      <trkpt lat="66.35691" lon="13.00431">
        <ele>99.826222</ele>
        <time>2020-08-15T10:26:04.588Z</time>
      </trkpt>
      <trkpt lat="66.35811" lon="13.00904">
        <ele>98.281646</ele>
        <time>2020-08-15T10:26:49.576Z</time>
      </trkpt>
      <trkpt lat="66.35871" lon="13.01483">
        <ele>88.604453</ele>
        <time>2020-08-15T10:27:20.604Z</time>
      </trkpt>
      <trkpt lat="66.35958" lon="13.01949">
        <ele>76.337797</ele>
        <time>2020-08-15T10:27:41.575Z</time>
      </trkpt>
      <trkpt lat="66.36128" lon="13.02341">
        <ele>67.699525</ele>
        <time>2020-08-15T10:28:02.586Z</time>
      </trkpt>
      <trkpt lat="66.3633" lon="13.02636">
        <ele>57.411677</ele>
        <time>2020-08-15T10:28:22.589Z</time>
      </trkpt>
      <trkpt lat="66.36467" lon="13.03016">
        <ele>46.761597</ele>
        <time>2020-08-15T10:28:43.602Z</time>
      </trkpt>
      <trkpt lat="66.36612" lon="13.03494">
        <ele>41.204445</ele>
        <time>2020-08-15T10:29:11.602Z</time>
      </trkpt>
      <trkpt lat="66.3676" lon="13.03977">
        <ele>39.332652</ele>
        <time>2020-08-15T10:30:04.581Z</time>
      </trkpt>
      <trkpt lat="66.3688" lon="13.04479">
        <ele>45.24627</ele>
        <time>2020-08-15T10:31:06.584Z</time>
      </trkpt>
      <trkpt lat="66.36997" lon="13.04978">
        <ele>43.466924</ele>
        <time>2020-08-15T10:31:52.593Z</time>
      </trkpt>
      <trkpt lat="66.37107" lon="13.05443">
        <ele>43.910719</ele>
        <time>2020-08-15T10:32:34.589Z</time>
      </trkpt>
      <trkpt lat="66.37229" lon="13.05957">
        <ele>44.964722</ele>
        <time>2020-08-15T10:33:16.602Z</time>
      </trkpt>
      <trkpt lat="66.37345" lon="13.06451">
        <ele>45.276963</ele>
        <time>2020-08-15T10:33:58.587Z</time>
      </trkpt>
      <trkpt lat="66.37445" lon="13.06941">
        <ele>45.742411</ele>
        <time>2020-08-15T10:34:40.590Z</time>
      </trkpt>
      <trkpt lat="66.37537" lon="13.07469">
        <ele>45.525095</ele>
        <time>2020-08-15T10:35:22.584Z</time>
      </trkpt>
      <trkpt lat="66.37636" lon="13.07934">
        <ele>50.330045</ele>
        <time>2020-08-15T10:36:17.593Z</time>
      </trkpt>
      <trkpt lat="66.37771" lon="13.08495">
        <ele>52.993811</ele>
        <time>2020-08-15T10:37:01.617Z</time>
      </trkpt>
      <trkpt lat="66.37897" lon="13.08998">
        <ele>53.221895</ele>
        <time>2020-08-15T10:37:43.572Z</time>
      </trkpt>
      <trkpt lat="66.38055" lon="13.09433">
        <ele>51.185032</ele>
        <time>2020-08-15T10:38:36.584Z</time>
      </trkpt>
      <trkpt lat="66.38265" lon="13.09803">
        <ele>48.873956</ele>
        <time>2020-08-15T10:39:39.616Z</time>
      </trkpt>
      <trkpt lat="66.38461" lon="13.10138">
        <ele>50.15822</ele>
        <time>2020-08-15T10:40:30.597Z</time>
      </trkpt>
      <trkpt lat="66.38593" lon="13.10603">
        <ele>51.417059</ele>
        <time>2020-08-15T10:41:25.586Z</time>
      </trkpt>
      <trkpt lat="66.38686" lon="13.11242">
        <ele>44.813801</ele>
        <time>2020-08-15T10:42:07.615Z</time>
      </trkpt>
      <trkpt lat="66.38795" lon="13.11741">
        <ele>46.521656</ele>
        <time>2020-08-15T10:42:49.606Z</time>
      </trkpt>
      <trkpt lat="66.38957" lon="13.12147">
        <ele>46.750483</ele>
        <time>2020-08-15T10:43:42.580Z</time>
      </trkpt>
      <trkpt lat="66.3914" lon="13.12434">
        <ele>47.02002</ele>
        <time>2020-08-15T10:44:29.608Z</time>
      </trkpt>
      <trkpt lat="66.39332" lon="13.12653">
        <ele>46.961002</ele>
        <time>2020-08-15T10:45:13.596Z</time>
      </trkpt>
      <trkpt lat="66.39525" lon="13.12942">
        <ele>44.296558</ele>
        <time>2020-08-15T10:45:55.594Z</time>
      </trkpt>
      <trkpt lat="66.39713" lon="13.13204">
        <ele>45.389797</ele>
        <time>2020-08-15T10:46:37.594Z</time>
      </trkpt>
      <trkpt lat="66.39818" lon="13.1363">
        <ele>46.462139</ele>
        <time>2020-08-15T10:47:19.631Z</time>
      </trkpt>
      <trkpt lat="66.39912" lon="13.14108">
        <ele>45.16184</ele>
        <time>2020-08-15T10:48:02.588Z</time>
      </trkpt>
      <trkpt lat="66.40013" lon="13.14573">
        <ele>45.807437</ele>
        <time>2020-08-15T10:48:44.592Z</time>
      </trkpt>
      <trkpt lat="66.40039" lon="13.15111">
        <ele>46.336544</ele>
        <time>2020-08-15T10:49:26.579Z</time>
      </trkpt>
      <trkpt lat="66.40136" lon="13.15604">
        <ele>47.341322</ele>
        <time>2020-08-15T10:50:14.604Z</time>
      </trkpt>
      <trkpt lat="66.40332" lon="13.15812">
        <ele>46.822966</ele>
        <time>2020-08-15T10:51:02.624Z</time>
      </trkpt>
      <trkpt lat="66.40548" lon="13.15942">
        <ele>46.144896</ele>
        <time>2020-08-15T10:51:54.591Z</time>
      </trkpt>
      <trkpt lat="66.40779" lon="13.16004">
        <ele>52.075696</ele>
        <time>2020-08-15T10:52:53.584Z</time>
      </trkpt>
      <trkpt lat="66.41018" lon="13.1585">
        <ele>52.211776</ele>
        <time>2020-08-15T10:53:46.597Z</time>
      </trkpt>
      <trkpt lat="66.41249" lon="13.1573">
        <ele>49.419023</ele>
        <time>2020-08-15T10:54:43.609Z</time>
      </trkpt>
      <trkpt lat="66.41467" lon="13.15398">
        <ele>47.564622</ele>
        <time>2020-08-15T10:55:46.620Z</time>
      </trkpt>
      <trkpt lat="66.41707" lon="13.15256">
        <ele>47.9274</ele>
        <time>2020-08-15T10:58:41.593Z</time>
      </trkpt>
      <trkpt lat="66.41938" lon="13.15163">
        <ele>56.005925</ele>
        <time>2020-08-15T10:59:33.590Z</time>
      </trkpt>
      <trkpt lat="66.42164" lon="13.15064">
        <ele>61.849484</ele>
        <time>2020-08-15T11:00:25.592Z</time>
      </trkpt>
      <trkpt lat="66.42358" lon="13.14784">
        <ele>59.13968</ele>
        <time>2020-08-15T11:01:25.602Z</time>
      </trkpt>
      <trkpt lat="66.42558" lon="13.14554">
        <ele>62.827083</ele>
        <time>2020-08-15T11:02:37.579Z</time>
      </trkpt>
      <trkpt lat="66.42739" lon="13.14297">
        <ele>69.594918</ele>
        <time>2020-08-15T11:03:41.600Z</time>
      </trkpt>
      <trkpt lat="66.42998" lon="13.14236">
        <ele>65.437974</ele>
        <time>2020-08-15T11:04:23.583Z</time>
      </trkpt>
      <trkpt lat="66.43247" lon="13.14571">
        <ele>64.082742</ele>
        <time>2020-08-15T11:05:07.613Z</time>
      </trkpt>
      <trkpt lat="66.43486" lon="13.14948">
        <ele>56.030509</ele>
        <time>2020-08-15T11:05:43.592Z</time>
      </trkpt>
      <trkpt lat="66.43681" lon="13.15198">
        <ele>68.16645</ele>
        <time>2020-08-15T11:07:02.597Z</time>
      </trkpt>
      <trkpt lat="66.43863" lon="13.15436">
        <ele>80.842639</ele>
        <time>2020-08-15T11:09:12.631Z</time>
      </trkpt>
      <trkpt lat="66.44059" lon="13.15422">
        <ele>95.599525</ele>
        <time>2020-08-15T11:11:12.616Z</time>
      </trkpt>
      <trkpt lat="66.44208" lon="13.15068">
        <ele>107.592459</ele>
        <time>2020-08-15T11:13:24.573Z</time>
      </trkpt>
      <trkpt lat="66.4439" lon="13.14918">
        <ele>110.610736</ele>
        <time>2020-08-15T11:15:00.595Z</time>
      </trkpt>
      <trkpt lat="66.44556" lon="13.15305">
        <ele>111.709354</ele>
        <time>2020-08-15T11:16:02.593Z</time>
      </trkpt>
      <trkpt lat="66.4471" lon="13.1573">
        <ele>110.501359</ele>
        <time>2020-08-15T11:16:55.588Z</time>
      </trkpt>
      <trkpt lat="66.44821" lon="13.16164">
        <ele>113.628311</ele>
        <time>2020-08-15T11:17:50.593Z</time>
      </trkpt>
      <trkpt lat="66.44862" lon="13.1679">
        <ele>114.232124</ele>
        <time>2020-08-15T11:18:43.628Z</time>
      </trkpt>
      <trkpt lat="66.44795" lon="13.1727">
        <ele>129.604892</ele>
        <time>2020-08-15T11:20:25.598Z</time>
      </trkpt>
      <trkpt lat="66.44936" lon="13.17728">
        <ele>127.925848</ele>
        <time>2020-08-15T11:21:29.603Z</time>
      </trkpt>
      <trkpt lat="66.45036" lon="13.18201">
        <ele>134.03943</ele>
        <time>2020-08-15T11:22:45.610Z</time>
      </trkpt>
      <trkpt lat="66.45096" lon="13.18689">
        <ele>147.151718</ele>
        <time>2020-08-15T11:24:33.629Z</time>
      </trkpt>
      <trkpt lat="66.45154" lon="13.19207">
        <ele>158.482262</ele>
        <time>2020-08-15T11:27:32.582Z</time>
      </trkpt>
      <trkpt lat="66.45255" lon="13.1978">
        <ele>148.771418</ele>
        <time>2020-08-15T11:28:09.609Z</time>
      </trkpt>
      <trkpt lat="66.454" lon="13.20387">
        <ele>135.601238</ele>
        <time>2020-08-15T11:28:30.614Z</time>
      </trkpt>
      <trkpt lat="66.4564" lon="13.20627">
        <ele>134.052725</ele>
        <time>2020-08-15T11:29:35.599Z</time>
      </trkpt>
      <trkpt lat="66.45836" lon="13.20831">
        <ele>128.141347</ele>
        <time>2020-08-15T11:30:23.599Z</time>
      </trkpt>
      <trkpt lat="66.45829" lon="13.21398">
        <ele>111.63778</ele>
        <time>2020-08-15T11:30:45.604Z</time>
      </trkpt>
      <trkpt lat="66.45965" lon="13.21867">
        <ele>96.544343</ele>
        <time>2020-08-15T11:31:07.593Z</time>
      </trkpt>
      <trkpt lat="66.46149" lon="13.22369">
        <ele>73.114146</ele>
        <time>2020-08-15T11:31:35.588Z</time>
      </trkpt>
      <trkpt lat="66.46312" lon="13.22822">
        <ele>71.397768</ele>
        <time>2020-08-15T11:32:25.619Z</time>
      </trkpt>
      <trkpt lat="66.46518" lon="13.22975">
        <ele>85.460763</ele>
        <time>2020-08-15T11:33:39.619Z</time>
      </trkpt>
      <trkpt lat="66.46703" lon="13.2319">
        <ele>97.725</ele>
        <time>2020-08-15T11:36:00.594Z</time>
      </trkpt>
      <trkpt lat="66.46938" lon="13.23362">
        <ele>93.860411</ele>
        <time>2020-08-15T11:36:39.599Z</time>
      </trkpt>
      <trkpt lat="66.4711" lon="13.23643">
        <ele>78.10514</ele>
        <time>2020-08-15T11:37:00.591Z</time>
      </trkpt>
      <trkpt lat="66.47314" lon="13.2377">
        <ele>60.921191</ele>
        <time>2020-08-15T11:37:21.599Z</time>
      </trkpt>
      <trkpt lat="66.4755" lon="13.23975">
        <ele>58.696791</ele>
        <time>2020-08-15T11:37:52.604Z</time>
      </trkpt>
      <trkpt lat="66.47757" lon="13.24148">
        <ele>65.114468</ele>
        <time>2020-08-15T11:39:05.614Z</time>
      </trkpt>
      <trkpt lat="66.47965" lon="13.24131">
        <ele>75.962952</ele>
        <time>2020-08-15T11:40:44.593Z</time>
      </trkpt>
      <trkpt lat="66.48148" lon="13.24355">
        <ele>87.657381</ele>
        <time>2020-08-15T11:43:00.603Z</time>
      </trkpt>
      <trkpt lat="66.48398" lon="13.24333">
        <ele>79.854105</ele>
        <time>2020-08-15T11:43:50.598Z</time>
      </trkpt>
      <trkpt lat="66.48574" lon="13.23958">
        <ele>70.853388</ele>
        <time>2020-08-15T11:44:13.584Z</time>
      </trkpt>
      <trkpt lat="66.48759" lon="13.23637">
        <ele>65.181544</ele>
        <time>2020-08-15T11:44:55.582Z</time>
      </trkpt>
      <trkpt lat="66.48799" lon="13.23145">
        <ele>55.243049</ele>
        <time>2020-08-15T11:46:09.603Z</time>
      </trkpt>
      <trkpt lat="66.48703" lon="13.22665">
        <ele>38.518341</ele>
        <time>2020-08-15T11:46:48.612Z</time>
      </trkpt>
      <trkpt lat="66.48916" lon="13.22806">
        <ele>41.853128</ele>
        <time>2020-08-15T11:53:10.594Z</time>
      </trkpt>
      <trkpt lat="66.491" lon="13.23027">
        <ele>28.290654</ele>
        <time>2020-08-15T12:02:50.600Z</time>
      </trkpt>
      <trkpt lat="66.49328" lon="13.23119">
        <ele>23.377819</ele>
        <time>2020-08-15T12:03:41.646Z</time>
      </trkpt>
      <trkpt lat="66.49558" lon="13.23182">
        <ele>21.009113</ele>
        <time>2020-08-15T12:04:23.615Z</time>
      </trkpt>
      <trkpt lat="66.49797" lon="13.23262">
        <ele>19.887669</ele>
        <time>2020-08-15T12:05:06.645Z</time>
      </trkpt>
      <trkpt lat="66.51377" lon="13.23584">
        <ele>29.730612</ele>
        <time>2020-08-15T12:09:45.217Z</time>
      </trkpt>
      <trkpt lat="66.51602" lon="13.23509">
        <ele>21.945937</ele>
        <time>2020-08-15T12:10:27.232Z</time>
      </trkpt>
      <trkpt lat="66.51827" lon="13.23323">
        <ele>17.639062</ele>
        <time>2020-08-15T12:11:09.211Z</time>
      </trkpt>
      <trkpt lat="66.52046" lon="13.23131">
        <ele>16.265178</ele>
        <time>2020-08-15T12:11:51.248Z</time>
      </trkpt>
      <trkpt lat="66.52272" lon="13.22944">
        <ele>12.538398</ele>
        <time>2020-08-15T12:12:33.246Z</time>
      </trkpt>
      <trkpt lat="66.52498" lon="13.22757">
        <ele>7.259144</ele>
        <time>2020-08-15T12:13:15.218Z</time>
      </trkpt>
      <trkpt lat="66.52715" lon="13.22579">
        <ele>7.144738</ele>
        <time>2020-08-15T12:13:57.239Z</time>
      </trkpt>
      <trkpt lat="66.52939" lon="13.22406">
        <ele>16.602731</ele>
        <time>2020-08-15T12:14:38.221Z</time>
      </trkpt>
      <trkpt lat="66.53167" lon="13.22211">
        <ele>20.047273</ele>
        <time>2020-08-15T12:15:22.234Z</time>
      </trkpt>
      <trkpt lat="66.53387" lon="13.22042">
        <ele>17.743134</ele>
        <time>2020-08-15T12:16:04.212Z</time>
      </trkpt>
      <trkpt lat="66.53606" lon="13.21871">
        <ele>16.1734</ele>
        <time>2020-08-15T12:16:46.218Z</time>
      </trkpt>
      <trkpt lat="66.5382" lon="13.21699">
        <ele>16.688526</ele>
        <time>2020-08-15T12:17:28.267Z</time>
      </trkpt>
      <trkpt lat="66.54027" lon="13.21483">
        <ele>24.249483</ele>
        <time>2020-08-15T12:18:10.204Z</time>
      </trkpt>
      <trkpt lat="66.54228" lon="13.21251">
        <ele>24.475132</ele>
        <time>2020-08-15T12:18:52.233Z</time>
      </trkpt>
      <trkpt lat="66.54426" lon="13.20991">
        <ele>22.42435</ele>
        <time>2020-08-15T12:19:37.254Z</time>
      </trkpt>
      <trkpt lat="66.5463" lon="13.20726">
        <ele>22.265916</ele>
        <time>2020-08-15T12:20:20.225Z</time>
      </trkpt>
      <trkpt lat="66.54823" lon="13.20472">
        <ele>29.021585</ele>
        <time>2020-08-15T12:21:02.241Z</time>
      </trkpt>
      <trkpt lat="66.55011" lon="13.20238">
        <ele>28.903667</ele>
        <time>2020-08-15T12:21:43.251Z</time>
      </trkpt>
      <trkpt lat="66.55208" lon="13.19951">
        <ele>22.326671</ele>
        <time>2020-08-15T12:22:26.241Z</time>
      </trkpt>
      <trkpt lat="66.55397" lon="13.1968">
        <ele>15.15546</ele>
        <time>2020-08-15T12:23:08.201Z</time>
      </trkpt>
      <trkpt lat="66.55588" lon="13.19421">
        <ele>20.936997</ele>
        <time>2020-08-15T12:23:50.230Z</time>
      </trkpt>
      <trkpt lat="66.55784" lon="13.19148">
        <ele>23.459932</ele>
        <time>2020-08-15T12:24:32.209Z</time>
      </trkpt>
      <trkpt lat="66.55979" lon="13.18875">
        <ele>29.044937</ele>
        <time>2020-08-15T12:25:14.205Z</time>
      </trkpt>
      <trkpt lat="66.56183" lon="13.1857">
        <ele>35.149479</ele>
        <time>2020-08-15T12:25:56.249Z</time>
      </trkpt>
      <trkpt lat="66.56388" lon="13.18275">
        <ele>35.087972</ele>
        <time>2020-08-15T12:26:39.207Z</time>
      </trkpt>
      <trkpt lat="66.56613" lon="13.18002">
        <ele>25.17056</ele>
        <time>2020-08-15T12:27:21.221Z</time>
      </trkpt>
      <trkpt lat="66.56828" lon="13.1776">
        <ele>22.736086</ele>
        <time>2020-08-15T12:28:03.239Z</time>
      </trkpt>
      <trkpt lat="66.57049" lon="13.17539">
        <ele>23.920598</ele>
        <time>2020-08-15T12:28:43.200Z</time>
      </trkpt>
      <trkpt lat="66.5728" lon="13.17391">
        <ele>22.142322</ele>
        <time>2020-08-15T12:29:25.209Z</time>
      </trkpt>
      <trkpt lat="66.575" lon="13.17551">
        <ele>21.412207</ele>
        <time>2020-08-15T12:30:07.198Z</time>
      </trkpt>
      <trkpt lat="66.57721" lon="13.178">
        <ele>18.845063</ele>
        <time>2020-08-15T12:30:49.267Z</time>
      </trkpt>
      <trkpt lat="66.57945" lon="13.18051">
        <ele>19.83427</ele>
        <time>2020-08-15T12:31:31.263Z</time>
      </trkpt>
      <trkpt lat="66.58169" lon="13.1831">
        <ele>22.083329</ele>
        <time>2020-08-15T12:32:13.245Z</time>
      </trkpt>
      <trkpt lat="66.58396" lon="13.18568">
        <ele>25.793307</ele>
        <time>2020-08-15T12:32:55.211Z</time>
      </trkpt>
      <trkpt lat="66.58628" lon="13.18835">
        <ele>27.438638</ele>
        <time>2020-08-15T12:33:38.208Z</time>
      </trkpt>
      <trkpt lat="66.58852" lon="13.19098">
        <ele>20.661569</ele>
        <time>2020-08-15T12:34:20.239Z</time>
      </trkpt>
      <trkpt lat="66.59073" lon="13.1936">
        <ele>26.409861</ele>
        <time>2020-08-15T12:35:02.222Z</time>
      </trkpt>
      <trkpt lat="66.59283" lon="13.19607">
        <ele>28.189828</ele>
        <time>2020-08-15T12:35:42.269Z</time>
      </trkpt>
      <trkpt lat="66.59505" lon="13.19881">
        <ele>25.857923</ele>
        <time>2020-08-15T12:36:24.242Z</time>
      </trkpt>
      <trkpt lat="66.59719" lon="13.20135">
        <ele>25.721959</ele>
        <time>2020-08-15T12:37:06.228Z</time>
      </trkpt>
      <trkpt lat="66.59938" lon="13.20399">
        <ele>21.880165</ele>
        <time>2020-08-15T12:37:48.243Z</time>
      </trkpt>
      <trkpt lat="66.60155" lon="13.20671">
        <ele>18.792147</ele>
        <time>2020-08-15T12:38:30.207Z</time>
      </trkpt>
      <trkpt lat="66.60375" lon="13.20952">
        <ele>22.50246</ele>
        <time>2020-08-15T12:39:12.205Z</time>
      </trkpt>
      <trkpt lat="66.60596" lon="13.21201">
        <ele>31.417609</ele>
        <time>2020-08-15T12:39:54.202Z</time>
      </trkpt>
      <trkpt lat="66.60822" lon="13.21453">
        <ele>27.836904</ele>
        <time>2020-08-15T12:40:36.217Z</time>
      </trkpt>
      <trkpt lat="66.61035" lon="13.21737">
        <ele>23.825628</ele>
        <time>2020-08-15T12:41:18.213Z</time>
      </trkpt>
      <trkpt lat="66.61254" lon="13.22018">
        <ele>18.615588</ele>
        <time>2020-08-15T12:42:00.202Z</time>
      </trkpt>
      <trkpt lat="66.61456" lon="13.22347">
        <ele>14.929936</ele>
        <time>2020-08-15T12:42:42.219Z</time>
      </trkpt>
      <trkpt lat="66.61631" lon="13.22719">
        <ele>15.619782</ele>
        <time>2020-08-15T12:43:22.221Z</time>
      </trkpt>
      <trkpt lat="66.61812" lon="13.23129">
        <ele>14.158599</ele>
        <time>2020-08-15T12:44:04.211Z</time>
      </trkpt>
      <trkpt lat="66.61992" lon="13.23508">
        <ele>19.463203</ele>
        <time>2020-08-15T12:44:46.219Z</time>
      </trkpt>
      <trkpt lat="66.62166" lon="13.23929">
        <ele>16.235879</ele>
        <time>2020-08-15T12:45:28.221Z</time>
      </trkpt>
      <trkpt lat="66.6233" lon="13.24356">
        <ele>7.018013</ele>
        <time>2020-08-15T12:46:10.216Z</time>
      </trkpt>
      <trkpt lat="66.62502" lon="13.24768">
        <ele>0.867049</ele>
        <time>2020-08-15T12:46:52.227Z</time>
      </trkpt>
      <trkpt lat="66.62665" lon="13.25189">
        <ele>9.611387</ele>
        <time>2020-08-15T12:47:34.241Z</time>
      </trkpt>
      <trkpt lat="66.62773" lon="13.25704">
        <ele>23.670611</ele>
        <time>2020-08-15T12:48:16.238Z</time>
      </trkpt>
      <trkpt lat="66.62764" lon="13.26295">
        <ele>30.741785</ele>
        <time>2020-08-15T12:48:58.210Z</time>
      </trkpt>
      <trkpt lat="66.62659" lon="13.26815">
        <ele>27.401192</ele>
        <time>2020-08-15T12:49:40.230Z</time>
      </trkpt>
      <trkpt lat="66.62564" lon="13.27296">
        <ele>26.344622</ele>
        <time>2020-08-15T12:50:20.224Z</time>
      </trkpt>
      <trkpt lat="66.62455" lon="13.27791">
        <ele>27.139758</ele>
        <time>2020-08-15T12:51:16.236Z</time>
      </trkpt>
      <trkpt lat="66.62399" lon="13.283">
        <ele>32.840937</ele>
        <time>2020-08-15T12:52:45.198Z</time>
      </trkpt>
      <trkpt lat="66.62419" lon="13.28912">
        <ele>40.54734</ele>
        <time>2020-08-15T13:01:03.213Z</time>
      </trkpt>
      <trkpt lat="66.62219" lon="13.29113">
        <ele>52.205852</ele>
        <time>2020-08-15T13:02:12.219Z</time>
      </trkpt>
      <trkpt lat="66.62063" lon="13.29432">
        <ele>71.033576</ele>
        <time>2020-08-15T13:04:21.202Z</time>
      </trkpt>
      <trkpt lat="66.62072" lon="13.29958">
        <ele>76.291328</ele>
        <time>2020-08-15T13:06:03.204Z</time>
      </trkpt>
      <trkpt lat="66.61985" lon="13.30541">
        <ele>64.163018</ele>
        <time>2020-08-15T13:06:31.234Z</time>
      </trkpt>
      <trkpt lat="66.61997" lon="13.31167">
        <ele>61.233142</ele>
        <time>2020-08-15T13:07:16.205Z</time>
      </trkpt>
      <trkpt lat="66.62088" lon="13.31738">
        <ele>65.30795</ele>
        <time>2020-08-15T13:08:10.232Z</time>
      </trkpt>
      <trkpt lat="66.6221" lon="13.32221">
        <ele>53.006933</ele>
        <time>2020-08-15T13:08:35.198Z</time>
      </trkpt>
      <trkpt lat="66.62377" lon="13.32606">
        <ele>51.472602</ele>
        <time>2020-08-15T13:09:01.202Z</time>
      </trkpt>
      <trkpt lat="66.62581" lon="13.32746">
        <ele>60.695249</ele>
        <time>2020-08-15T13:10:25.215Z</time>
      </trkpt>
      <trkpt lat="66.62777" lon="13.32601">
        <ele>62.754161</ele>
        <time>2020-08-15T13:11:29.203Z</time>
      </trkpt>
      <trkpt lat="66.6299" lon="13.32419">
        <ele>66.876421</ele>
        <time>2020-08-15T13:12:20.235Z</time>
      </trkpt>
      <trkpt lat="66.63195" lon="13.325">
        <ele>79.104454</ele>
        <time>2020-08-15T13:13:58.231Z</time>
      </trkpt>
      <trkpt lat="66.63332" lon="13.32902">
        <ele>71.744092</ele>
        <time>2020-08-15T13:14:41.210Z</time>
      </trkpt>
      <trkpt lat="66.6329" lon="13.33572">
        <ele>54.004042</ele>
        <time>2020-08-15T13:15:02.222Z</time>
      </trkpt>
      <trkpt lat="66.63272" lon="13.34181">
        <ele>43.115397</ele>
        <time>2020-08-15T13:15:23.226Z</time>
      </trkpt>
      <trkpt lat="66.63309" lon="13.34815">
        <ele>38.65628</ele>
        <time>2020-08-15T13:16:00.214Z</time>
      </trkpt>
      <trkpt lat="66.63239" lon="13.35361">
        <ele>40.32417</ele>
        <time>2020-08-15T13:16:40.233Z</time>
      </trkpt>
      <trkpt lat="66.63242" lon="13.35971">
        <ele>42.299568</ele>
        <time>2020-08-15T13:17:30.205Z</time>
      </trkpt>
      <trkpt lat="66.63291" lon="13.36515">
        <ele>43.063904</ele>
        <time>2020-08-15T13:18:12.210Z</time>
      </trkpt>
      <trkpt lat="66.63381" lon="13.36995">
        <ele>50.438243</ele>
        <time>2020-08-15T13:19:25.218Z</time>
      </trkpt>
      <trkpt lat="66.63246" lon="13.3747">
        <ele>49.067505</ele>
        <time>2020-08-15T13:20:23.199Z</time>
      </trkpt>
      <trkpt lat="66.63338" lon="13.38038">
        <ele>43.692688</ele>
        <time>2020-08-15T13:21:01.210Z</time>
      </trkpt>
      <trkpt lat="66.63503" lon="13.38434">
        <ele>47.275647</ele>
        <time>2020-08-15T13:21:54.214Z</time>
      </trkpt>
      <trkpt lat="66.63545" lon="13.38988">
        <ele>56.419231</ele>
        <time>2020-08-15T13:23:14.212Z</time>
      </trkpt>
      <trkpt lat="66.63484" lon="13.39508">
        <ele>63.332755</ele>
        <time>2020-08-15T13:24:31.227Z</time>
      </trkpt>
      <trkpt lat="66.63392" lon="13.40019">
        <ele>66.569545</ele>
        <time>2020-08-15T13:25:30.207Z</time>
      </trkpt>
      <trkpt lat="66.63236" lon="13.40348">
        <ele>78.402454</ele>
        <time>2020-08-15T13:27:11.217Z</time>
      </trkpt>
      <trkpt lat="66.63039" lon="13.40394">
        <ele>85.856488</ele>
        <time>2020-08-15T13:28:37.216Z</time>
      </trkpt>
      <trkpt lat="66.62783" lon="13.41543">
        <ele>113.338953</ele>
        <time>2020-08-15T13:33:45.231Z</time>
      </trkpt>
      <trkpt lat="66.62691" lon="13.42029">
        <ele>114.541308</ele>
        <time>2020-08-15T13:34:40.227Z</time>
      </trkpt>
      <trkpt lat="66.62558" lon="13.42567">
        <ele>113.217488</ele>
        <time>2020-08-15T13:37:47.203Z</time>
      </trkpt>
      <trkpt lat="66.62462" lon="13.43058">
        <ele>117.700676</ele>
        <time>2020-08-15T13:38:50.212Z</time>
      </trkpt>
      <trkpt lat="66.62435" lon="13.43657">
        <ele>115.763192</ele>
        <time>2020-08-15T13:39:39.212Z</time>
      </trkpt>
      <trkpt lat="66.62412" lon="13.44215">
        <ele>114.517836</ele>
        <time>2020-08-15T13:40:21.211Z</time>
      </trkpt>
      <trkpt lat="66.62335" lon="13.44721">
        <ele>124.35535</ele>
        <time>2020-08-15T13:41:36.214Z</time>
      </trkpt>
      <trkpt lat="66.6224" lon="13.45192">
        <ele>134.411955</ele>
        <time>2020-08-15T13:43:21.210Z</time>
      </trkpt>
      <trkpt lat="66.62189" lon="13.45707">
        <ele>137.758918</ele>
        <time>2020-08-15T13:44:33.212Z</time>
      </trkpt>
      <trkpt lat="66.64083" lon="13.51995">
        <ele>75.274134</ele>
        <time>2020-08-15T13:52:23.226Z</time>
      </trkpt>
      <trkpt lat="66.64252" lon="13.52309">
        <ele>72.025039</ele>
        <time>2020-08-15T13:53:30.240Z</time>
      </trkpt>
      <trkpt lat="66.64458" lon="13.52423">
        <ele>80.305689</ele>
        <time>2020-08-15T13:55:09.236Z</time>
      </trkpt>
      <trkpt lat="66.64594" lon="13.52823">
        <ele>80.242038</ele>
        <time>2020-08-15T13:56:05.222Z</time>
      </trkpt>
      <trkpt lat="66.64649" lon="13.53392">
        <ele>75.076628</ele>
        <time>2020-08-15T13:56:47.207Z</time>
      </trkpt>
      <trkpt lat="66.64511" lon="13.53941">
        <ele>65.186168</ele>
        <time>2020-08-15T13:57:21.213Z</time>
      </trkpt>
      <trkpt lat="66.64443" lon="13.54422">
        <ele>50.874339</ele>
        <time>2020-08-15T13:57:42.217Z</time>
      </trkpt>
      <trkpt lat="66.64451" lon="13.55018">
        <ele>42.436106</ele>
        <time>2020-08-15T13:58:07.223Z</time>
      </trkpt>
      <trkpt lat="66.64551" lon="13.55689">
        <ele>39.193283</ele>
        <time>2020-08-15T13:58:49.239Z</time>
      </trkpt>
      <trkpt lat="66.64647" lon="13.56336">
        <ele>43.780439</ele>
        <time>2020-08-15T13:59:31.234Z</time>
      </trkpt>
      <trkpt lat="66.64815" lon="13.56736">
        <ele>45.965494</ele>
        <time>2020-08-15T14:00:11.224Z</time>
      </trkpt>
      <trkpt lat="66.65016" lon="13.5656">
        <ele>44.402544</ele>
        <time>2020-08-15T14:00:57.224Z</time>
      </trkpt>
      <trkpt lat="66.6513" lon="13.56104">
        <ele>42.57436</ele>
        <time>2020-08-15T14:02:09.255Z</time>
      </trkpt>
      <trkpt lat="66.65199" lon="13.55544">
        <ele>41.533514</ele>
        <time>2020-08-15T14:02:55.213Z</time>
      </trkpt>
      <trkpt lat="66.6537" lon="13.55124">
        <ele>47.72037</ele>
        <time>2020-08-15T14:03:52.218Z</time>
      </trkpt>
      <trkpt lat="66.65573" lon="13.54794">
        <ele>47.792556</ele>
        <time>2020-08-15T14:04:34.216Z</time>
      </trkpt>
      <trkpt lat="66.65758" lon="13.54483">
        <ele>47.929298</ele>
        <time>2020-08-15T14:05:19.217Z</time>
      </trkpt>
      <trkpt lat="66.65994" lon="13.543">
        <ele>44.334821</ele>
        <time>2020-08-15T14:06:01.222Z</time>
      </trkpt>
      <trkpt lat="66.66176" lon="13.54046">
        <ele>46.885661</ele>
        <time>2020-08-15T14:06:43.240Z</time>
      </trkpt>
      <trkpt lat="66.66383" lon="13.53952">
        <ele>43.846265</ele>
        <time>2020-08-15T14:07:25.236Z</time>
      </trkpt>
      <trkpt lat="66.66611" lon="13.53979">
        <ele>42.456376</ele>
        <time>2020-08-15T14:08:05.236Z</time>
      </trkpt>
      <trkpt lat="66.6683" lon="13.53796">
        <ele>44.981537</ele>
        <time>2020-08-15T14:08:54.212Z</time>
      </trkpt>
      <trkpt lat="66.67023" lon="13.53513">
        <ele>49.798178</ele>
        <time>2020-08-15T14:09:56.213Z</time>
      </trkpt>
      <trkpt lat="66.67172" lon="13.53019">
        <ele>48.856308</ele>
        <time>2020-08-15T14:10:55.246Z</time>
      </trkpt>
      <trkpt lat="66.67207" lon="13.52459">
        <ele>54.382591</ele>
        <time>2020-08-15T14:12:11.210Z</time>
      </trkpt>
      <trkpt lat="66.67204" lon="13.51932">
        <ele>66.240043</ele>
        <time>2020-08-15T14:13:58.221Z</time>
      </trkpt>
      <trkpt lat="66.67269" lon="13.51423">
        <ele>69.803052</ele>
        <time>2020-08-15T14:15:11.207Z</time>
      </trkpt>
      <trkpt lat="66.67439" lon="13.51029">
        <ele>67.495291</ele>
        <time>2020-08-15T14:16:01.253Z</time>
      </trkpt>
      <trkpt lat="66.67613" lon="13.50349">
        <ele>58.234893</ele>
        <time>2020-08-15T14:16:43.257Z</time>
      </trkpt>
      <trkpt lat="66.67653" lon="13.49719">
        <ele>53.015211</ele>
        <time>2020-08-15T14:17:25.226Z</time>
      </trkpt>
      <trkpt lat="66.67711" lon="13.49045">
        <ele>51.059189</ele>
        <time>2020-08-15T14:18:07.248Z</time>
      </trkpt>
      <trkpt lat="66.67756" lon="13.48521">
        <ele>52.881132</ele>
        <time>2020-08-15T14:18:58.225Z</time>
      </trkpt>
      <trkpt lat="66.67778" lon="13.47961">
        <ele>49.938885</ele>
        <time>2020-08-15T14:19:40.267Z</time>
      </trkpt>
      <trkpt lat="66.67737" lon="13.47402">
        <ele>54.37712</ele>
        <time>2020-08-15T14:20:49.264Z</time>
      </trkpt>
      <trkpt lat="66.67757" lon="13.46886">
        <ele>73.263236</ele>
        <time>2020-08-15T14:23:05.223Z</time>
      </trkpt>
      <trkpt lat="66.67852" lon="13.46433">
        <ele>83.768351</ele>
        <time>2020-08-15T14:25:06.232Z</time>
      </trkpt>
      <trkpt lat="66.68091" lon="13.46349">
        <ele>79.011806</ele>
        <time>2020-08-15T14:25:43.239Z</time>
      </trkpt>
      <trkpt lat="66.68283" lon="13.46196">
        <ele>81.808844</ele>
        <time>2020-08-15T14:27:08.229Z</time>
      </trkpt>
      <trkpt lat="66.68501" lon="13.46681">
        <ele>76.029297</ele>
        <time>2020-08-15T14:27:50.240Z</time>
      </trkpt>
      <trkpt lat="66.68732" lon="13.46723">
        <ele>79.201201</ele>
        <time>2020-08-15T14:28:44.239Z</time>
      </trkpt>
      <trkpt lat="66.6894" lon="13.46758">
        <ele>90.980711</ele>
        <time>2020-08-15T14:30:06.243Z</time>
      </trkpt>
      <trkpt lat="66.69135" lon="13.46884">
        <ele>104.645361</ele>
        <time>2020-08-15T14:32:09.242Z</time>
      </trkpt>
      <trkpt lat="66.69347" lon="13.46735">
        <ele>98.40165</ele>
        <time>2020-08-15T14:32:52.260Z</time>
      </trkpt>
      <trkpt lat="66.69556" lon="13.4658">
        <ele>104.855086</ele>
        <time>2020-08-15T14:34:03.243Z</time>
      </trkpt>
      <trkpt lat="66.69813" lon="13.46535">
        <ele>98.539253</ele>
        <time>2020-08-15T14:34:33.229Z</time>
      </trkpt>
      <trkpt lat="66.70119" lon="13.46715">
        <ele>74.398617</ele>
        <time>2020-08-15T14:34:54.235Z</time>
      </trkpt>
      <trkpt lat="66.70345" lon="13.46992">
        <ele>59.777845</ele>
        <time>2020-08-15T14:35:27.242Z</time>
      </trkpt>
      <trkpt lat="66.70589" lon="13.46988">
        <ele>62.372675</ele>
        <time>2020-08-15T14:36:11.255Z</time>
      </trkpt>
      <trkpt lat="66.70774" lon="13.46637">
        <ele>63.768342</ele>
        <time>2020-08-15T14:37:05.219Z</time>
      </trkpt>
      <trkpt lat="66.7101" lon="13.46679">
        <ele>61.447955</ele>
        <time>2020-08-15T14:37:53.242Z</time>
      </trkpt>
      <trkpt lat="66.71267" lon="13.46652">
        <ele>60.685945</ele>
        <time>2020-08-15T14:38:32.253Z</time>
      </trkpt>
      <trkpt lat="66.71449" lon="13.46693">
        <ele>72.505507</ele>
        <time>2020-08-15T14:39:57.223Z</time>
      </trkpt>
      <trkpt lat="66.71614" lon="13.47108">
        <ele>68.640325</ele>
        <time>2020-08-15T14:41:12.215Z</time>
      </trkpt>
      <trkpt lat="66.71892" lon="13.47111">
        <ele>54.320463</ele>
        <time>2020-08-15T14:41:54.234Z</time>
      </trkpt>
      <trkpt lat="66.71923" lon="13.47586">
        <ele>45.739694</ele>
        <time>2020-08-15T14:42:40.220Z</time>
      </trkpt>
      <trkpt lat="66.72156" lon="13.47547">
        <ele>52.318508</ele>
        <time>2020-08-15T15:01:58.248Z</time>
      </trkpt>
      <trkpt lat="66.72325" lon="13.47874">
        <ele>49.804895</ele>
        <time>2020-08-15T15:03:17.233Z</time>
      </trkpt>
      <trkpt lat="66.72492" lon="13.48266">
        <ele>50.155593</ele>
        <time>2020-08-15T15:04:20.267Z</time>
      </trkpt>
      <trkpt lat="66.72696" lon="13.48732">
        <ele>55.085357</ele>
        <time>2020-08-15T15:05:25.232Z</time>
      </trkpt>
      <trkpt lat="66.7287" lon="13.49127">
        <ele>58.592558</ele>
        <time>2020-08-15T15:06:17.246Z</time>
      </trkpt>
      <trkpt lat="66.732" lon="13.49864">
        <ele>56.949983</ele>
        <time>2020-08-15T15:07:53.898Z</time>
      </trkpt>
      <trkpt lat="66.73336" lon="13.50228">
        <ele>63.928497</ele>
        <time>2020-08-15T15:08:39.244Z</time>
      </trkpt>
      <trkpt lat="66.73501" lon="13.50618">
        <ele>62.892833</ele>
        <time>2020-08-15T15:09:29.279Z</time>
      </trkpt>
      <trkpt lat="66.73677" lon="13.51">
        <ele>59.538525</ele>
        <time>2020-08-15T15:10:30.258Z</time>
      </trkpt>
      <trkpt lat="66.73842" lon="13.51341">
        <ele>59.682625</ele>
        <time>2020-08-15T15:12:21.245Z</time>
      </trkpt>
      <trkpt lat="66.73929" lon="13.51804">
        <ele>48.261474</ele>
        <time>2020-08-15T15:14:54.236Z</time>
      </trkpt>
      <trkpt lat="66.73976" lon="13.52355">
        <ele>47.120798</ele>
        <time>2020-08-15T15:15:54.251Z</time>
      </trkpt>
      <trkpt lat="66.73944" lon="13.5292">
        <ele>50.865826</ele>
        <time>2020-08-15T15:16:53.239Z</time>
      </trkpt>
      <trkpt lat="66.73927" lon="13.5349">
        <ele>50.839572</ele>
        <time>2020-08-15T15:17:45.234Z</time>
      </trkpt>
      <trkpt lat="66.74003" lon="13.5405">
        <ele>49.403009</ele>
        <time>2020-08-15T15:18:27.261Z</time>
      </trkpt>
      <trkpt lat="66.74209" lon="13.54646">
        <ele>45.062614</ele>
        <time>2020-08-15T15:19:09.256Z</time>
      </trkpt>
      <trkpt lat="66.74319" lon="13.55148">
        <ele>43.278139</ele>
        <time>2020-08-15T15:19:59.233Z</time>
      </trkpt>
      <trkpt lat="66.74213" lon="13.5467">
        <ele>48.564947</ele>
        <time>2020-08-15T15:43:24.223Z</time>
      </trkpt>
      <trkpt lat="66.7407" lon="13.54247">
        <ele>42.520547</ele>
        <time>2020-08-15T15:44:31.244Z</time>
      </trkpt>
      <trkpt lat="66.73961" lon="13.53783">
        <ele>46.099362</ele>
        <time>2020-08-15T15:45:43.255Z</time>
      </trkpt>
      <trkpt lat="66.73924" lon="13.53226">
        <ele>48.217042</ele>
        <time>2020-08-15T15:46:46.239Z</time>
      </trkpt>
      <trkpt lat="66.73975" lon="13.52629">
        <ele>47.235528</ele>
        <time>2020-08-15T15:47:39.252Z</time>
      </trkpt>
      <trkpt lat="66.73948" lon="13.52012">
        <ele>45.891489</ele>
        <time>2020-08-15T15:48:25.250Z</time>
      </trkpt>
      <trkpt lat="66.73935" lon="13.51424">
        <ele>43.171301</ele>
        <time>2020-08-15T15:49:11.253Z</time>
      </trkpt>
      <trkpt lat="66.73992" lon="13.50817">
        <ele>48.572551</ele>
        <time>2020-08-15T15:50:07.262Z</time>
      </trkpt>
      <trkpt lat="66.7407" lon="13.50323">
        <ele>49.439034</ele>
        <time>2020-08-15T15:50:53.272Z</time>
      </trkpt>
      <trkpt lat="66.73932" lon="13.50284">
        <ele>44.451605</ele>
        <time>2020-08-15T15:51:49.277Z</time>
      </trkpt>
    </trkseg>
  </trk>
</gpx>